Weather at Heller Airport

Public forecast

Using degrees Fahrenheit for public forecast. Weather courtesy of forecast.io.

Closest aviation weather report (METAR) to Heller Airport

Closest report is Dubuque Regional Airport, 13.7 nm (25.4 km) W. Retrieved 2021/06/13 10:53 UTC (17 minutes ago):

KDBQ 131053Z 36004KT 10SM CLR 17/09 A3004 RMK AO2 SLP167 T01720089

Closest aviation forecast (TAF) to Heller Airport

Closest forecast is Dubuque Regional Airport, 13.7 nm (25.4 km) W. Retrieved 2021/06/13 06:22 UTC (5 hours ago):

TAF KDBQ 130520Z 1306/1406 34005KT P6SM SKC FM140200 23005KT P6SM SKC